createdAt,value
2023-01-13T00:01:56.825Z,97728.91
2023-01-13T00:06:59.103Z,97713.28
2023-01-13T00:12:01.364Z,97710.22
2023-01-13T00:17:04.573Z,97693.78
2023-01-13T00:22:06.834Z,97693.09
2023-01-13T00:27:08.869Z,97683.75
2023-01-13T00:32:10.915Z,97681.91
2023-01-13T00:37:14.688Z,97665.09
2023-01-13T00:42:35.071Z,97659.75
2023-01-13T00:47:37.304Z,97649.31
2023-01-13T00:52:41.904Z,97643.03
2023-01-13T00:57:44.533Z,97638.28
2023-01-13T01:02:46.598Z,97631.81
2023-01-13T01:07:48.830Z,97636.06
2023-01-13T01:12:50.999Z,97633.19
2023-01-13T01:17:53.290Z,97634.44
2023-01-13T01:22:55.429Z,97637.06
2023-01-13T01:27:57.613Z,97642.66
2023-01-13T01:32:59.656Z,97642.72
2023-01-13T01:38:01.739Z,97634.25
2023-01-13T01:43:40.255Z,97633.81
2023-01-13T01:48:43.071Z,97640.44
2023-01-13T01:53:45.070Z,97615.66
2023-01-13T01:58:52.447Z,97615.09
2023-01-13T02:04:16.512Z,97614.63
2023-01-13T02:09:18.689Z,97616.19
2023-01-13T02:14:28.307Z,97611.94
2023-01-13T02:20:32.916Z,97616.09
2023-01-13T02:26:23.144Z,97598.56
2023-01-13T02:31:44.607Z,97597.84
2023-01-13T02:36:59.978Z,97585.63
2023-01-13T02:42:37.823Z,97589.72
2023-01-13T02:47:46.304Z,97582.75
2023-01-13T02:53:05.534Z,97586.31
2023-01-13T02:58:13.810Z,97580.97
2023-01-13T03:03:15.861Z,97561.78
2023-01-13T03:08:43.517Z,97564.94
2023-01-13T03:14:12.968Z,97582.94
2023-01-13T03:19:31.189Z,97571.75
2023-01-13T03:24:55.778Z,97595.22
2023-01-13T03:30:14.280Z,97584.81
2023-01-13T03:35:30.886Z,97565.13
2023-01-13T03:40:45.626Z,97561.22
2023-01-13T03:45:59.768Z,97561.88
2023-01-13T03:51:11.249Z,97551.78
2023-01-13T03:56:27.325Z,97546.44
2023-01-13T04:01:47.212Z,97540.91
2023-01-13T04:07:03.689Z,97532.34
2023-01-13T04:12:57.049Z,97529.03
2023-01-13T04:18:15.602Z,97512.34
2023-01-13T04:23:19.349Z,97511.50
2023-01-13T04:28:22.570Z,97516.72
2023-01-13T04:33:25.026Z,97517.75
2023-01-13T04:38:27.391Z,97508.78
2023-01-13T04:43:29.623Z,97507.91
2023-01-13T04:48:31.703Z,97494.41
2023-01-13T04:53:33.733Z,97492.25
2023-01-13T04:58:35.992Z,97492.25
2023-01-13T05:03:38.030Z,97491.16
2023-01-13T05:08:40.048Z,97488.78
2023-01-13T05:14:00.622Z,97496.94
2023-01-13T05:19:02.672Z,97504.63
2023-01-13T05:24:23.778Z,97506.59
2023-01-13T05:29:25.975Z,97506.41
2023-01-13T05:34:28.210Z,97516.28
2023-01-13T05:39:50.189Z,97496.06
2023-01-13T05:44:52.261Z,97500.53
2023-01-13T05:49:54.722Z,97493.97
2023-01-13T05:54:56.869Z,97475.50
2023-01-13T05:59:58.974Z,97478.66
2023-01-13T06:05:00.962Z,97481.03
2023-01-13T06:10:03.065Z,97481.28
2023-01-13T06:15:06.119Z,97484.84
2023-01-13T06:20:09.706Z,97486.06
2023-01-13T06:26:00.163Z,97494.31
2023-01-13T06:31:07.475Z,97496.38
2023-01-13T06:36:22.214Z,97501.16
2023-01-13T06:41:46.273Z,97497.91
2023-01-13T06:46:48.357Z,97490.28
2023-01-13T06:51:50.460Z,97479.63
2023-01-13T06:56:52.661Z,97488.88
2023-01-13T07:01:55.191Z,97480.41
2023-01-13T07:06:57.482Z,97476.47
2023-01-13T07:11:59.887Z,97487.75
2023-01-13T07:17:01.881Z,97482.03
2023-01-13T07:22:04.070Z,97472.88
2023-01-13T07:27:06.111Z,97479.84
2023-01-13T07:32:08.429Z,97483.63
2023-01-13T07:37:10.689Z,97500.50
2023-01-13T07:42:31.162Z,97489.41
2023-01-13T07:47:33.411Z,97493.66
2023-01-13T07:52:35.733Z,97496.38
2023-01-13T07:57:37.785Z,97490.09
2023-01-13T08:02:40.179Z,97502.81
2023-01-13T08:07:42.379Z,97516.84
2023-01-13T08:13:03.096Z,97513.81
2023-01-13T08:18:05.133Z,97511.16
2023-01-13T08:23:07.778Z,97527.06
2023-01-13T08:28:09.976Z,97530.41
2023-01-13T08:33:13.362Z,97530.09
2023-01-13T08:38:15.401Z,97550.56
2023-01-13T08:43:17.491Z,97573.25
2023-01-13T08:48:19.535Z,97581.06
2023-01-13T08:53:21.681Z,97599.13
2023-01-13T08:58:24.078Z,97614.94
2023-01-13T09:03:26.462Z,97629.66
2023-01-13T09:08:28.628Z,97656.19
2023-01-13T09:13:30.689Z,97655.06
2023-01-13T09:18:32.810Z,97666.94
2023-01-13T09:23:35.046Z,97654.75
2023-01-13T09:28:37.337Z,97664.78
2023-01-13T09:33:57.888Z,97669.84
2023-01-13T09:39:00.046Z,97674.16
2023-01-13T09:44:07.185Z,97670.28
2023-01-13T09:49:26.876Z,97658.47
2023-01-13T09:54:43.998Z,97670.19
2023-01-13T09:59:46.585Z,97680.03
2023-01-13T10:05:32.327Z,97695.63
2023-01-13T10:10:50.665Z,97698.69
2023-01-13T10:16:10.947Z,97694.38
2023-01-13T10:21:42.052Z,97694.78
2023-01-13T10:27:05.594Z,97692.50
2023-01-13T10:32:07.700Z,97688.34
2023-01-13T10:37:26.448Z,97709.72
2023-01-13T10:42:28.905Z,97701.75
2023-01-13T10:47:37.272Z,97712.28
2023-01-13T10:53:16.277Z,97723.22
2023-01-13T10:58:21.211Z,97722.69
2023-01-13T11:03:25.319Z,97738.56
2023-01-13T11:08:45.252Z,97735.69
2023-01-13T11:14:09.357Z,97738.00
2023-01-13T11:19:18.805Z,97735.00
2023-01-13T11:24:37.438Z,97734.81
2023-01-13T11:30:19.553Z,97754.53
2023-01-13T11:35:22.418Z,97759.13
2023-01-13T11:40:42.664Z,97765.88
2023-01-13T11:45:51.930Z,97752.31
2023-01-13T11:51:04.642Z,97739.81
2023-01-13T11:56:40.598Z,97749.84
2023-01-13T12:02:22.056Z,97743.16
2023-01-13T12:07:59.921Z,97736.25
2023-01-13T12:13:21.356Z,97740.78
2023-01-13T12:18:51.434Z,97739.25
2023-01-13T12:24:17.849Z,97750.75
2023-01-13T12:29:26.777Z,97744.84
2023-01-13T12:34:51.852Z,97760.09
2023-01-13T12:40:20.276Z,97764.13
2023-01-13T12:45:24.896Z,97785.50
2023-01-13T12:50:27.393Z,97785.44
2023-01-13T12:55:33.781Z,97787.44
2023-01-13T13:00:41.561Z,97791.34
2023-01-13T13:06:02.195Z,97786.28
2023-01-13T13:11:31.813Z,97792.91
2023-01-13T13:16:46.511Z,97778.44
2023-01-13T13:22:13.558Z,97793.78
2023-01-13T13:27:45.651Z,97784.56
2023-01-13T13:33:11.744Z,97768.19
2023-01-13T13:39:23.244Z,97776.78
2023-01-13T13:44:59.178Z,97797.19
2023-01-13T13:50:14.807Z,97812.97
2023-01-13T13:55:29.773Z,97839.25
2023-01-13T14:00:38.117Z,97855.66
2023-01-13T14:05:52.055Z,97868.97
2023-01-13T14:10:54.588Z,97904.06
2023-01-13T14:16:06.229Z,97902.69
2023-01-13T14:21:29.384Z,97898.38
2023-01-13T14:26:34.050Z,97924.28
2023-01-13T14:31:38.582Z,97902.34
2023-01-13T14:36:41.990Z,97898.06
2023-01-13T14:41:48.205Z,97885.97
2023-01-13T14:46:51.060Z,97883.72
2023-01-13T14:51:54.584Z,97898.06
2023-01-13T14:57:35.678Z,97919.91
2023-01-13T15:02:40.661Z,97918.84
2023-01-13T15:07:50.560Z,97926.31
2023-01-13T15:12:56.426Z,97922.59
2023-01-13T15:17:59.860Z,97927.94
2023-01-13T15:23:02.135Z,97934.91
2023-01-13T15:28:06.680Z,97941.81
2023-01-13T15:33:12.819Z,97946.59
2023-01-13T15:38:19.077Z,97949.94
2023-01-13T15:43:42.684Z,97946.66
2023-01-13T15:48:44.809Z,97946.00
2023-01-13T15:53:49.932Z,97951.50
2023-01-13T15:58:52.689Z,97951.38
2023-01-13T16:03:56.551Z,97953.69
2023-01-13T16:08:59.661Z,97972.16
2023-01-13T16:14:01.869Z,97964.72
2023-01-13T16:19:04.285Z,97981.69
2023-01-13T16:24:06.651Z,97998.28
2023-01-13T16:29:12.720Z,98009.84
2023-01-13T16:34:14.977Z,98016.78
2023-01-13T16:39:22.286Z,98022.88
2023-01-13T16:44:24.899Z,98036.09
2023-01-13T16:49:27.221Z,98039.66
2023-01-13T16:54:29.219Z,98045.38
2023-01-13T16:59:31.304Z,98050.91
2023-01-13T17:04:33.357Z,98053.09
2023-01-13T17:09:35.596Z,98068.13
2023-01-13T17:14:37.787Z,98069.66
2023-01-13T17:19:40.028Z,98077.66
2023-01-13T17:24:42.771Z,98094.88
2023-01-13T17:29:45.146Z,98111.44
2023-01-13T17:34:47.630Z,98108.88
2023-01-13T17:39:51.146Z,98124.34
2023-01-13T17:44:53.480Z,98108.91
2023-01-13T17:49:55.956Z,98113.44
2023-01-13T17:54:58.114Z,98130.03
2023-01-13T18:00:00.400Z,98138.06
2023-01-13T18:05:02.454Z,98149.56
2023-01-13T18:10:04.978Z,98152.19
2023-01-13T18:15:07.755Z,98151.97
2023-01-13T18:20:52.910Z,98138.94
2023-01-13T18:26:13.886Z,98158.31
2023-01-13T18:31:16.167Z,98175.31
2023-01-13T18:36:18.632Z,98189.63
2023-01-13T18:41:39.447Z,98193.31
2023-01-13T18:46:41.675Z,98200.75
2023-01-13T18:51:43.746Z,98212.38
2023-01-13T18:56:47.008Z,98222.06
2023-01-13T19:01:49.419Z,98227.09
2023-01-13T19:06:51.858Z,98247.59
2023-01-13T19:11:54.981Z,98243.00
2023-01-13T19:16:57.769Z,98238.38
2023-01-13T19:22:00.121Z,98232.63
2023-01-13T19:27:03.054Z,98238.44
2023-01-13T19:32:05.467Z,98261.97
2023-01-13T19:37:08.025Z,98261.56
2023-01-13T19:42:31.332Z,98267.34
2023-01-13T19:47:34.153Z,98280.06
2023-01-13T19:52:36.272Z,98286.28
2023-01-13T19:57:40.079Z,98295.13
2023-01-13T20:02:49.335Z,98299.38
2023-01-13T20:07:52.851Z,98295.88
2023-01-13T20:12:55.514Z,98305.53
2023-01-13T20:17:58.278Z,98318.63
2023-01-13T20:23:00.654Z,98311.69
2023-01-13T20:28:02.749Z,98321.72
2023-01-13T20:33:04.943Z,98319.38
2023-01-13T20:38:06.989Z,98332.94
2023-01-13T20:43:09.228Z,98345.66
2023-01-13T20:48:11.468Z,98338.72
2023-01-13T20:53:13.490Z,98350.31
2023-01-13T20:58:15.775Z,98338.75
2023-01-13T21:03:18.102Z,98341.03
2023-01-13T21:08:20.287Z,98351.09
2023-01-13T21:13:41.217Z,98358.00
2023-01-13T21:19:02.026Z,98358.81
2023-01-13T21:24:04.698Z,98368.06
2023-01-13T21:29:06.811Z,98353.41
2023-01-13T21:34:10.896Z,98357.28
2023-01-13T21:39:14.693Z,98368.06
2023-01-13T21:44:38.654Z,98383.88
2023-01-13T21:49:44.272Z,98393.91
2023-01-13T21:55:05.092Z,98418.25
2023-01-13T22:00:09.615Z,98403.53
2023-01-13T22:05:14.929Z,98407.84
2023-01-13T22:10:22.648Z,98428.28
2023-01-13T22:15:28.190Z,98410.91
2023-01-13T22:20:30.235Z,98408.97
2023-01-13T22:25:32.274Z,98435.22
2023-01-13T22:30:34.308Z,98418.22
2023-01-13T22:35:36.595Z,98418.97
2023-01-13T22:40:38.784Z,98414.34
2023-01-13T22:45:40.867Z,98424.38
2023-01-13T22:50:43.911Z,98423.56
2023-01-13T22:55:55.810Z,98395.03
2023-01-13T23:01:13.071Z,98402.75
2023-01-13T23:06:18.256Z,98395.00
2023-01-13T23:11:24.088Z,98403.91
2023-01-13T23:16:28.533Z,98405.88
2023-01-13T23:21:34.537Z,98415.16
2023-01-13T23:26:37.595Z,98423.22
2023-01-13T23:31:40.678Z,98418.22
2023-01-13T23:36:43.856Z,98427.81
2023-01-13T23:41:45.921Z,98429.75
2023-01-13T23:46:48.002Z,98428.97
2023-01-13T23:51:51.653Z,98422.00
2023-01-13T23:56:53.866Z,98427.44
